createdAt,value
2017-09-24T00:00:43.958Z,0
2017-09-24T00:01:45.574Z,0
2017-09-24T00:02:47.176Z,0
2017-09-24T00:03:48.790Z,0
2017-09-24T00:04:50.395Z,0
2017-09-24T00:05:52.009Z,0
2017-09-24T00:06:53.614Z,0
2017-09-24T00:07:55.223Z,0
2017-09-24T00:08:56.840Z,0
2017-09-24T00:09:58.476Z,0
2017-09-24T00:11:00.083Z,0
2017-09-24T00:12:01.693Z,0
2017-09-24T00:13:03.308Z,0
2017-09-24T00:14:04.924Z,0
2017-09-24T00:15:06.530Z,0
2017-09-24T00:16:08.140Z,0
2017-09-24T00:17:09.752Z,0
2017-09-24T00:18:11.362Z,0
2017-09-24T00:19:12.968Z,0
2017-09-24T00:20:14.578Z,0
2017-09-24T00:21:16.193Z,0
2017-09-24T00:22:17.801Z,0
2017-09-24T00:23:19.420Z,0
2017-09-24T00:24:21.028Z,0
2017-09-24T00:25:22.635Z,0
2017-09-24T00:26:24.240Z,0
2017-09-24T00:27:25.852Z,0
2017-09-24T00:28:27.463Z,0
2017-09-24T00:29:29.071Z,0
2017-09-24T00:30:30.682Z,0
2017-09-24T00:31:32.296Z,0
2017-09-24T00:32:33.903Z,0
2017-09-24T00:33:35.519Z,0
2017-09-24T00:34:37.126Z,0
2017-09-24T00:35:38.741Z,0
2017-09-24T00:36:40.349Z,0
2017-09-24T00:37:41.969Z,0
2017-09-24T00:38:43.571Z,0
2017-09-24T00:39:45.183Z,0
2017-09-24T00:40:46.791Z,0
2017-09-24T00:41:48.405Z,0
2017-09-24T00:42:50.012Z,0
2017-09-24T00:43:51.625Z,0
2017-09-24T00:44:53.230Z,0
2017-09-24T00:45:54.845Z,0
2017-09-24T00:46:56.454Z,0
2017-09-24T00:47:58.061Z,0
2017-09-24T00:48:59.674Z,0
2017-09-24T00:50:01.283Z,0
2017-09-24T00:51:02.897Z,0
2017-09-24T00:52:04.504Z,0
2017-09-24T00:53:06.120Z,0
2017-09-24T00:54:07.729Z,0
2017-09-24T00:55:09.338Z,0
2017-09-24T00:56:10.942Z,0
2017-09-24T00:57:12.559Z,0
2017-09-24T00:58:14.167Z,0
2017-09-24T00:59:15.782Z,0
2017-09-24T01:00:17.387Z,0
2017-09-24T01:01:18.999Z,0
2017-09-24T01:02:20.606Z,0
2017-09-24T01:03:22.219Z,0
2017-09-24T01:04:23.826Z,0
2017-09-24T01:05:25.435Z,0
2017-09-24T01:06:27.050Z,0
2017-09-24T01:07:28.660Z,0
2017-09-24T01:08:30.266Z,0
2017-09-24T01:09:31.873Z,0
2017-09-24T01:10:33.487Z,0
2017-09-24T01:11:35.097Z,0
2017-09-24T01:12:36.704Z,0
2017-09-24T01:13:38.316Z,0
2017-09-24T01:14:39.928Z,0
2017-09-24T01:15:41.539Z,0
2017-09-24T01:16:43.147Z,0
2017-09-24T01:17:44.755Z,0
2017-09-24T01:18:46.368Z,0
2017-09-24T01:19:47.979Z,0
2017-09-24T01:20:49.594Z,0
2017-09-24T01:21:51.203Z,0
2017-09-24T01:22:52.810Z,0
2017-09-24T01:23:55.188Z,0
2017-09-24T01:24:56.803Z,0
2017-09-24T01:25:58.414Z,0
2017-09-24T01:27:00.024Z,0
2017-09-24T01:28:01.633Z,0
2017-09-24T01:29:03.245Z,0
2017-09-24T01:30:04.847Z,0
2017-09-24T01:31:06.464Z,0
2017-09-24T01:32:08.068Z,0
2017-09-24T01:33:09.683Z,0
2017-09-24T01:34:11.292Z,0
2017-09-24T01:35:12.905Z,0
2017-09-24T01:36:14.512Z,0
2017-09-24T01:37:16.124Z,0
2017-09-24T01:38:17.729Z,0
2017-09-24T01:39:19.345Z,0
2017-09-24T01:40:20.952Z,0
2017-09-24T01:41:22.567Z,0
2017-09-24T01:42:24.177Z,0
2017-09-24T01:43:25.788Z,0
2017-09-24T01:44:27.395Z,0
2017-09-24T01:45:29.003Z,0
2017-09-24T01:46:30.612Z,0
2017-09-24T01:47:32.223Z,0
2017-09-24T01:48:33.832Z,0
2017-09-24T01:49:35.446Z,0
2017-09-24T01:50:37.051Z,0
2017-09-24T01:51:38.658Z,0
2017-09-24T01:52:40.273Z,0
2017-09-24T01:53:41.882Z,0
2017-09-24T01:54:43.504Z,0
2017-09-24T01:55:45.105Z,0
2017-09-24T01:56:46.721Z,0
2017-09-24T01:57:48.326Z,0
2017-09-24T01:58:49.940Z,0
2017-09-24T01:59:51.545Z,0
2017-09-24T02:00:53.160Z,0
2017-09-24T02:01:54.774Z,0
2017-09-24T02:02:56.382Z,0
2017-09-24T02:03:57.999Z,0
2017-09-24T02:04:59.609Z,0
2017-09-24T02:06:01.214Z,0
2017-09-24T02:07:02.824Z,0
2017-09-24T02:08:04.433Z,0
2017-09-24T02:09:06.047Z,0
2017-09-24T02:10:07.656Z,0
2017-09-24T02:11:09.268Z,0
2017-09-24T02:12:10.879Z,0
2017-09-24T02:13:12.491Z,0
2017-09-24T02:14:14.097Z,0
2017-09-24T02:15:15.705Z,0
2017-09-24T02:16:17.321Z,0
2017-09-24T02:17:18.935Z,0
2017-09-24T02:18:20.549Z,0
2017-09-24T02:19:22.159Z,0
2017-09-24T02:20:23.762Z,0
2017-09-24T02:21:25.377Z,0
2017-09-24T02:22:26.981Z,0
2017-09-24T02:23:28.594Z,0
2017-09-24T02:24:30.202Z,0
2017-09-24T02:25:31.813Z,0
2017-09-24T02:26:33.423Z,0
2017-09-24T02:27:35.035Z,0
2017-09-24T02:28:36.641Z,0
2017-09-24T02:29:38.251Z,0
2017-09-24T02:30:39.865Z,0
2017-09-24T02:31:41.475Z,0
2017-09-24T02:32:43.085Z,0
2017-09-24T02:33:44.700Z,0
2017-09-24T02:34:46.312Z,0
2017-09-24T02:35:47.922Z,0
2017-09-24T02:36:49.537Z,0
2017-09-24T02:37:51.148Z,0
2017-09-24T02:38:52.758Z,0
2017-09-24T02:39:54.366Z,0
2017-09-24T02:40:55.979Z,0
2017-09-24T02:41:57.582Z,0
2017-09-24T02:42:59.195Z,0
2017-09-24T02:44:00.799Z,0
2017-09-24T02:45:02.415Z,0
2017-09-24T02:46:04.023Z,0
2017-09-24T02:47:05.637Z,0
2017-09-24T02:48:07.242Z,0
2017-09-24T02:49:08.856Z,0
2017-09-24T02:50:10.467Z,0
2017-09-24T02:51:12.079Z,0
2017-09-24T02:52:13.691Z,0
2017-09-24T02:53:15.304Z,0
2017-09-24T02:54:16.917Z,0
2017-09-24T02:55:18.520Z,0
2017-09-24T02:56:20.135Z,0
2017-09-24T02:57:21.747Z,0
2017-09-24T02:58:23.358Z,0
2017-09-24T02:59:24.965Z,0
2017-09-24T03:00:26.577Z,0
2017-09-24T03:01:28.184Z,0
2017-09-24T03:02:29.797Z,0
2017-09-24T03:03:31.402Z,0
2017-09-24T03:04:33.015Z,0
2017-09-24T03:05:34.620Z,0
2017-09-24T03:06:36.228Z,0
2017-09-24T03:07:37.835Z,0
2017-09-24T03:08:39.445Z,0
2017-09-24T03:09:41.060Z,0
2017-09-24T03:10:42.664Z,0
2017-09-24T03:11:44.276Z,0
2017-09-24T03:12:45.882Z,0
2017-09-24T03:13:47.492Z,0
2017-09-24T03:14:49.107Z,0
2017-09-24T03:15:50.716Z,0
2017-09-24T03:16:52.324Z,0
2017-09-24T03:17:53.936Z,0
2017-09-24T03:18:55.552Z,0
2017-09-24T03:19:57.154Z,0
2017-09-24T03:20:58.763Z,0
2017-09-24T03:22:00.379Z,0
2017-09-24T03:23:01.991Z,0
2017-09-24T03:24:03.607Z,0
2017-09-24T03:25:05.219Z,0
2017-09-24T03:26:06.831Z,0
2017-09-24T03:27:08.439Z,0
2017-09-24T03:28:10.047Z,0
2017-09-24T03:29:11.657Z,0
2017-09-24T03:30:13.275Z,0
2017-09-24T03:31:14.882Z,0
2017-09-24T03:32:16.495Z,0
2017-09-24T03:33:18.104Z,0
2017-09-24T03:34:19.710Z,0
2017-09-24T03:35:21.322Z,0
2017-09-24T03:36:22.934Z,0
2017-09-24T03:37:24.548Z,0
2017-09-24T03:38:26.157Z,0
2017-09-24T03:39:27.759Z,0
2017-09-24T03:40:29.371Z,0
2017-09-24T03:41:30.977Z,0
2017-09-24T03:42:32.588Z,0
2017-09-24T03:43:34.201Z,0
2017-09-24T03:44:35.811Z,0
2017-09-24T03:45:37.423Z,0
2017-09-24T03:46:39.037Z,0
2017-09-24T03:47:40.640Z,0
2017-09-24T03:48:42.244Z,0
2017-09-24T03:49:43.859Z,0
2017-09-24T03:50:45.464Z,0
2017-09-24T03:51:47.077Z,0
2017-09-24T03:52:48.682Z,0
2017-09-24T03:53:50.294Z,0
2017-09-24T03:54:51.900Z,0
2017-09-24T03:55:53.510Z,0
2017-09-24T03:56:55.124Z,0
2017-09-24T03:57:56.734Z,0
2017-09-24T03:58:58.344Z,0
2017-09-24T03:59:59.954Z,0
2017-09-24T04:01:01.558Z,0
2017-09-24T04:02:03.164Z,0
2017-09-24T04:03:04.778Z,0
2017-09-24T04:04:06.381Z,0
2017-09-24T04:05:07.994Z,0
2017-09-24T04:06:09.602Z,0
2017-09-24T04:07:11.214Z,0
2017-09-24T04:08:12.818Z,0
2017-09-24T04:09:14.429Z,0
2017-09-24T04:10:16.036Z,0
2017-09-24T04:11:17.648Z,0
2017-09-24T04:12:19.256Z,0
2017-09-24T04:13:20.869Z,0
2017-09-24T04:14:22.480Z,0
2017-09-24T04:15:24.085Z,0
2017-09-24T04:16:25.694Z,0
2017-09-24T04:17:27.304Z,0
2017-09-24T04:18:28.917Z,0
2017-09-24T04:19:30.528Z,0
2017-09-24T04:20:32.144Z,0
2017-09-24T04:21:33.751Z,0
2017-09-24T04:22:35.358Z,0
2017-09-24T04:23:36.975Z,0
2017-09-24T04:24:38.587Z,0
2017-09-24T04:25:40.201Z,0
2017-09-24T04:26:41.803Z,0
2017-09-24T04:27:43.418Z,0
2017-09-24T04:28:45.023Z,0
2017-09-24T04:29:46.634Z,0
2017-09-24T04:30:48.245Z,0
2017-09-24T04:31:49.851Z,0
2017-09-24T04:32:51.458Z,0
2017-09-24T04:33:53.070Z,0
2017-09-24T04:34:54.683Z,0
2017-09-24T04:35:56.288Z,0
2017-09-24T04:36:57.900Z,0
2017-09-24T04:37:59.507Z,0
2017-09-24T04:39:01.119Z,0
2017-09-24T04:40:02.728Z,0
2017-09-24T04:41:04.337Z,0
2017-09-24T04:42:05.953Z,0
2017-09-24T04:43:07.567Z,0
2017-09-24T04:44:09.170Z,0
2017-09-24T04:45:10.785Z,0
2017-09-24T04:46:12.389Z,0
2017-09-24T04:47:14.008Z,0
2017-09-24T04:48:15.613Z,0
2017-09-24T04:49:17.229Z,0
2017-09-24T04:50:18.833Z,0
2017-09-24T04:51:20.446Z,0
2017-09-24T04:52:22.051Z,0
2017-09-24T04:53:23.662Z,0
2017-09-24T04:54:25.270Z,4
2017-09-24T04:55:26.882Z,4
2017-09-24T04:56:28.490Z,4
2017-09-24T04:57:30.101Z,4
2017-09-24T04:58:31.706Z,4
2017-09-24T04:59:33.320Z,8
2017-09-24T05:00:34.925Z,4
2017-09-24T05:01:36.539Z,4
2017-09-24T05:02:38.156Z,12
2017-09-24T05:03:39.764Z,8
2017-09-24T05:04:41.372Z,12
2017-09-24T05:05:42.982Z,12
2017-09-24T05:06:44.591Z,20
2017-09-24T05:07:46.204Z,20
2017-09-24T05:08:47.812Z,20
2017-09-24T05:09:49.421Z,28
2017-09-24T05:10:51.038Z,28
2017-09-24T05:11:52.643Z,32
2017-09-24T05:12:54.255Z,40
2017-09-24T05:13:55.862Z,48
2017-09-24T05:14:57.474Z,52
2017-09-24T05:15:59.084Z,56
2017-09-24T05:17:00.698Z,60
2017-09-24T05:18:02.309Z,64
2017-09-24T05:19:03.924Z,76
2017-09-24T05:20:05.530Z,80
2017-09-24T05:21:07.144Z,92
2017-09-24T05:22:08.752Z,96
2017-09-24T05:23:10.367Z,104
2017-09-24T05:24:11.974Z,112
2017-09-24T05:25:13.598Z,120
2017-09-24T05:26:15.206Z,132
2017-09-24T05:27:16.814Z,144
2017-09-24T05:28:18.425Z,156
2017-09-24T05:29:20.042Z,168
2017-09-24T05:30:21.657Z,180
2017-09-24T05:31:23.266Z,192
2017-09-24T05:32:24.881Z,200
2017-09-24T05:33:26.496Z,216
2017-09-24T05:34:28.109Z,236
2017-09-24T05:35:29.718Z,252
2017-09-24T05:36:31.329Z,264
2017-09-24T05:37:32.948Z,276
2017-09-24T05:38:34.564Z,288
2017-09-24T05:39:36.174Z,308
2017-09-24T05:40:37.787Z,316
2017-09-24T05:41:39.401Z,320
2017-09-24T05:42:41.013Z,324
2017-09-24T05:43:42.629Z,336
2017-09-24T05:44:44.244Z,352
2017-09-24T05:45:45.854Z,360
2017-09-24T05:46:47.468Z,376
2017-09-24T05:47:49.086Z,392
2017-09-24T05:48:50.710Z,408
2017-09-24T05:49:52.318Z,416
2017-09-24T05:50:53.930Z,436
2017-09-24T05:51:55.548Z,444
2017-09-24T05:52:57.164Z,468
2017-09-24T05:53:58.776Z,472
2017-09-24T05:55:00.386Z,492
2017-09-24T05:56:02.004Z,496
2017-09-24T05:57:03.617Z,516
2017-09-24T05:58:05.226Z,524
2017-09-24T05:59:06.844Z,536
2017-09-24T06:00:08.454Z,544
2017-09-24T06:01:10.068Z,552
2017-09-24T06:02:11.682Z,568
2017-09-24T06:03:13.297Z,584
2017-09-24T06:04:14.905Z,600
2017-09-24T06:05:16.517Z,620
2017-09-24T06:06:18.138Z,644
2017-09-24T06:07:19.747Z,672
2017-09-24T06:08:21.360Z,696
2017-09-24T06:09:22.975Z,736
2017-09-24T06:10:24.585Z,776
2017-09-24T06:11:26.195Z,824
2017-09-24T06:12:27.813Z,868
2017-09-24T06:13:29.425Z,896
2017-09-24T06:14:31.042Z,928
2017-09-24T06:15:32.654Z,964
2017-09-24T06:16:34.271Z,952
2017-09-24T06:17:35.884Z,968
2017-09-24T06:18:37.493Z,988
2017-09-24T06:19:39.104Z,1008
2017-09-24T06:20:40.726Z,1032
2017-09-24T06:21:42.344Z,1076
2017-09-24T06:22:43.953Z,1108
2017-09-24T06:23:45.573Z,1012
2017-09-24T06:24:47.191Z,1048
2017-09-24T06:25:48.800Z,1096
2017-09-24T06:26:50.418Z,1116
2017-09-24T06:27:52.037Z,1132
2017-09-24T06:28:53.648Z,1152
2017-09-24T06:29:55.261Z,1200
2017-09-24T06:30:56.871Z,1244
2017-09-24T06:31:58.485Z,1288
2017-09-24T06:33:00.107Z,1324
2017-09-24T06:34:01.728Z,1368
2017-09-24T06:35:03.346Z,1404
2017-09-24T06:36:04.959Z,1428
2017-09-24T06:37:06.582Z,1460
2017-09-24T06:38:08.193Z,1488
2017-09-24T06:39:09.810Z,1516
2017-09-24T06:40:11.421Z,1532
2017-09-24T06:41:13.040Z,1548
2017-09-24T06:42:14.659Z,1548
2017-09-24T06:43:16.286Z,1560
2017-09-24T06:44:17.903Z,1580
2017-09-24T06:45:19.543Z,1608
2017-09-24T06:46:21.134Z,1640
2017-09-24T06:47:22.752Z,1656
2017-09-24T06:48:24.369Z,1644
2017-09-24T06:49:25.980Z,1640
2017-09-24T06:50:27.600Z,1660
2017-09-24T06:51:29.219Z,1692
2017-09-24T06:52:30.834Z,1728
2017-09-24T06:53:32.442Z,1772
2017-09-24T06:54:34.063Z,1816
2017-09-24T06:55:35.675Z,1888
2017-09-24T06:56:37.297Z,1960
2017-09-24T06:57:38.910Z,2048
2017-09-24T06:58:40.527Z,2144
2017-09-24T06:59:42.139Z,2228
2017-09-24T07:00:43.751Z,2300
2017-09-24T07:01:45.367Z,2336
2017-09-24T07:02:46.984Z,2396
2017-09-24T07:03:48.598Z,2444
2017-09-24T07:04:50.220Z,2472
2017-09-24T07:05:51.833Z,2496
2017-09-24T07:06:53.448Z,2508
2017-09-24T07:07:55.063Z,2524
2017-09-24T07:08:56.681Z,2548
2017-09-24T07:09:58.295Z,2576
2017-09-24T07:10:59.910Z,2604
2017-09-24T07:12:01.532Z,2624
2017-09-24T07:13:03.151Z,2640
2017-09-24T07:14:04.766Z,2648
2017-09-24T07:15:06.377Z,2676
2017-09-24T07:16:07.996Z,2716
2017-09-24T07:17:09.618Z,2784
2017-09-24T07:18:11.231Z,2864
2017-09-24T07:19:12.844Z,2960
2017-09-24T07:20:14.460Z,3052
2017-09-24T07:21:16.074Z,3140
2017-09-24T07:22:17.693Z,3236
2017-09-24T07:23:19.312Z,3312
2017-09-24T07:24:20.923Z,3368
2017-09-24T07:25:22.542Z,3444
2017-09-24T07:26:24.161Z,3512
2017-09-24T07:27:25.789Z,3580
2017-09-24T07:28:27.395Z,3660
2017-09-24T07:29:29.014Z,3720
2017-09-24T07:30:30.633Z,3764
2017-09-24T07:31:32.252Z,3824
2017-09-24T07:32:33.864Z,3900
2017-09-24T07:33:35.485Z,3972
2017-09-24T07:34:37.100Z,4052
2017-09-24T07:35:38.717Z,4128
2017-09-24T07:36:40.334Z,4200
2017-09-24T07:37:41.948Z,4276
2017-09-24T07:38:43.567Z,4356
2017-09-24T07:39:45.181Z,4480
2017-09-24T07:40:46.801Z,4640
2017-09-24T07:41:48.416Z,4812
2017-09-24T07:42:50.035Z,5008
2017-09-24T07:43:51.649Z,5228
2017-09-24T07:44:53.268Z,5484
2017-09-24T07:45:54.883Z,5760
2017-09-24T07:46:56.498Z,6044
2017-09-24T07:47:58.113Z,6348
2017-09-24T07:48:59.731Z,6672
2017-09-24T07:50:01.344Z,7000
2017-09-24T07:51:02.963Z,7364
2017-09-24T07:52:04.592Z,7840
2017-09-24T07:53:06.192Z,8448
2017-09-24T07:54:07.817Z,14496
2017-09-24T07:55:09.431Z,11792
2017-09-24T07:56:11.053Z,10192
2017-09-24T07:57:12.666Z,10244
2017-09-24T07:58:14.289Z,10672
2017-09-24T07:59:15.901Z,11100
2017-09-24T08:00:17.522Z,11576
2017-09-24T08:01:19.136Z,12188
2017-09-24T08:02:20.758Z,13052
2017-09-24T08:03:22.383Z,13460
2017-09-24T08:04:23.993Z,13716
2017-09-24T08:05:25.610Z,14428
2017-09-24T08:06:27.239Z,14640
2017-09-24T08:07:28.850Z,15432
2017-09-24T08:08:30.478Z,16320
2017-09-24T08:09:32.089Z,18752
2017-09-24T08:10:33.712Z,17344
2017-09-24T08:11:35.328Z,16384
2017-09-24T08:12:36.945Z,17120
2017-09-24T08:13:38.568Z,18304
2017-09-24T08:14:40.190Z,22976
2017-09-24T08:15:41.805Z,24608
2017-09-24T08:16:43.424Z,20192
2017-09-24T08:17:45.054Z,30560
2017-09-24T08:18:46.673Z,25632
2017-09-24T08:19:48.289Z,32224
2017-09-24T08:20:49.909Z,30880
2017-09-24T08:21:51.532Z,28128
2017-09-24T08:22:53.155Z,25024
2017-09-24T08:23:54.774Z,21792
2017-09-24T08:24:56.396Z,25696
2017-09-24T08:25:58.019Z,22464
2017-09-24T08:26:59.637Z,22624
2017-09-24T08:28:01.263Z,22336
2017-09-24T08:29:02.897Z,19616
2017-09-24T08:30:04.508Z,18496
2017-09-24T08:31:06.129Z,17024
2017-09-24T08:32:07.758Z,16992
2017-09-24T08:33:09.380Z,17984
2017-09-24T08:34:10.999Z,20320
2017-09-24T08:35:12.620Z,29408
2017-09-24T08:36:14.247Z,25376
2017-09-24T08:37:15.872Z,17952
2017-09-24T08:38:17.491Z,15052
2017-09-24T08:39:19.113Z,13616
2017-09-24T08:40:20.739Z,12576
2017-09-24T08:41:22.360Z,11840
2017-09-24T08:42:23.983Z,11392
2017-09-24T08:43:25.604Z,11208
2017-09-24T08:44:27.225Z,11240
2017-09-24T08:45:28.851Z,11368
2017-09-24T08:46:30.518Z,10672
2017-09-24T08:47:32.618Z,10960
2017-09-24T08:48:34.236Z,11296
2017-09-24T08:49:35.863Z,12752
2017-09-24T08:50:37.480Z,13088
2017-09-24T08:51:39.107Z,13372
2017-09-24T08:52:40.725Z,13604
2017-09-24T08:53:42.354Z,13836
2017-09-24T08:54:43.970Z,14120
2017-09-24T08:55:45.597Z,14508
2017-09-24T08:56:47.217Z,15084
2017-09-24T08:57:48.842Z,15872
2017-09-24T08:58:50.463Z,16992
2017-09-24T08:59:52.085Z,18208
2017-09-24T09:00:53.713Z,20032
2017-09-24T09:01:55.335Z,22272
2017-09-24T09:02:56.957Z,24352
2017-09-24T09:03:58.577Z,29216
2017-09-24T09:05:00.203Z,36256
2017-09-24T09:06:01.829Z,27712
2017-09-24T09:07:03.455Z,31520
2017-09-24T09:08:05.079Z,29312
2017-09-24T09:09:06.705Z,34976
2017-09-24T09:10:08.324Z,37888
2017-09-24T09:11:09.950Z,34208
2017-09-24T09:12:11.570Z,32608
2017-09-24T09:13:13.198Z,31904
2017-09-24T09:14:14.821Z,33856
2017-09-24T09:15:16.452Z,29408
2017-09-24T09:16:18.080Z,39968
2017-09-24T09:17:19.699Z,39136
2017-09-24T09:18:21.322Z,31200
2017-09-24T09:19:22.950Z,34144
2017-09-24T09:20:24.579Z,36000
2017-09-24T09:21:26.203Z,40768
2017-09-24T09:22:27.828Z,34400
2017-09-24T09:23:29.455Z,32096
2017-09-24T09:24:31.079Z,29408
2017-09-24T09:25:32.711Z,32384
2017-09-24T09:26:34.337Z,32128
2017-09-24T09:27:35.960Z,47776
2017-09-24T09:28:37.586Z,48896
2017-09-24T09:29:39.220Z,49600
2017-09-24T09:30:40.850Z,50464
2017-09-24T09:31:42.473Z,41312
2017-09-24T09:32:44.097Z,23264
2017-09-24T09:33:45.733Z,24256
2017-09-24T09:34:47.369Z,19008
2017-09-24T09:35:48.993Z,24064
2017-09-24T09:36:50.623Z,30880
2017-09-24T09:37:52.257Z,34976
2017-09-24T09:38:53.884Z,34240
2017-09-24T09:39:55.510Z,35392
2017-09-24T09:40:57.145Z,45792
2017-09-24T09:41:58.773Z,46976
2017-09-24T09:43:00.406Z,45888
2017-09-24T09:44:02.026Z,44096
2017-09-24T09:45:03.681Z,44832
2017-09-24T09:46:05.306Z,45664
2017-09-24T09:47:06.940Z,41632
2017-09-24T09:48:08.569Z,41600
2017-09-24T09:49:10.206Z,38784
2017-09-24T09:50:11.833Z,31648
2017-09-24T09:51:13.467Z,40032
2017-09-24T09:52:15.091Z,9840
2017-09-24T09:53:15.072Z,38048
2017-09-24T09:54:16.706Z,41568
2017-09-24T09:56:08.420Z,41856
2017-09-24T09:57:10.056Z,40800
2017-09-24T09:59:01.787Z,38240
2017-09-24T10:00:03.462Z,37472
2017-09-24T10:01:55.137Z,40672
2017-09-24T10:02:56.766Z,38016
2017-09-24T10:04:48.506Z,39424
2017-09-24T10:05:50.139Z,41152
2017-09-24T10:07:42.711Z,41440
2017-09-24T10:08:44.338Z,43360
2017-09-24T10:10:36.082Z,43136
2017-09-24T10:11:37.714Z,41632
2017-09-24T10:13:29.430Z,41696
2017-09-24T10:14:31.069Z,42304
2017-09-24T10:16:22.806Z,40544
2017-09-24T10:17:24.435Z,40544
2017-09-24T10:19:16.167Z,43520
2017-09-24T10:20:17.794Z,43008
2017-09-24T10:22:09.536Z,42432
2017-09-24T10:23:11.166Z,43328
2017-09-24T10:25:02.890Z,42752
2017-09-24T10:26:04.526Z,43168
2017-09-24T10:27:56.267Z,42368
2017-09-24T10:28:57.896Z,41120
2017-09-24T10:30:49.617Z,42464
2017-09-24T10:31:51.251Z,42464
2017-09-24T10:33:43.009Z,41728
2017-09-24T10:34:44.637Z,41664
2017-09-24T10:36:36.364Z,40256
2017-09-24T10:37:37.998Z,37728
2017-09-24T10:39:29.770Z,41600
2017-09-24T10:40:31.404Z,41600
2017-09-24T10:42:23.125Z,42848
2017-09-24T10:43:24.763Z,43488
2017-09-24T10:45:17.352Z,45312
2017-09-24T10:46:18.982Z,40960
2017-09-24T10:48:10.703Z,42240
2017-09-24T10:49:12.340Z,40704
2017-09-24T10:51:04.090Z,40864
2017-09-24T10:52:05.732Z,40608
2017-09-24T10:53:57.462Z,40960
2017-09-24T10:54:59.092Z,40480
2017-09-24T10:56:50.838Z,40160
2017-09-24T10:57:52.476Z,40256
2017-09-24T10:59:44.199Z,41952
2017-09-24T11:00:45.833Z,42240
2017-09-24T11:02:37.579Z,44608
2017-09-24T11:03:39.208Z,44032
2017-09-24T11:05:30.934Z,44032
2017-09-24T11:06:32.566Z,43968
2017-09-24T11:08:24.315Z,43104
2017-09-24T11:09:25.944Z,42656
2017-09-24T11:11:17.690Z,43008
2017-09-24T11:12:19.316Z,43616
2017-09-24T11:14:11.041Z,37856
2017-09-24T11:15:12.671Z,38208
2017-09-24T11:17:04.417Z,38400
2017-09-24T11:18:06.045Z,41888
2017-09-24T11:19:57.770Z,42016
2017-09-24T11:20:59.399Z,41216
2017-09-24T11:22:51.139Z,41536
2017-09-24T11:23:52.778Z,40672
2017-09-24T11:25:44.493Z,41888
2017-09-24T11:26:46.129Z,42944
2017-09-24T11:28:38.717Z,42560
2017-09-24T11:29:40.353Z,41344
2017-09-24T11:31:32.077Z,40960
2017-09-24T11:32:33.709Z,40032
2017-09-24T11:34:25.451Z,44224
2017-09-24T11:35:27.084Z,46464
2017-09-24T11:37:18.798Z,44672
2017-09-24T11:38:20.436Z,43200
2017-09-24T11:40:12.167Z,45664
2017-09-24T11:41:13.794Z,46720
2017-09-24T11:43:05.517Z,43488
2017-09-24T11:44:07.150Z,43776
2017-09-24T11:45:59.736Z,41280
2017-09-24T11:47:01.368Z,38240
2017-09-24T11:48:53.117Z,42240
2017-09-24T11:49:54.741Z,42080
2017-09-24T11:51:46.460Z,42464
2017-09-24T11:52:48.090Z,46304
2017-09-24T11:54:39.829Z,42784
2017-09-24T11:55:41.459Z,43168
2017-09-24T11:57:33.174Z,47488
2017-09-24T11:58:34.799Z,47456
2017-09-24T12:00:26.544Z,41120
2017-09-24T12:01:28.169Z,35840
2017-09-24T12:03:19.880Z,38720
2017-09-24T12:04:21.509Z,40512
2017-09-24T12:06:13.241Z,40448
2017-09-24T12:07:14.869Z,39296
2017-09-24T12:09:06.587Z,10044
2017-09-24T12:10:08.217Z,9088
2017-09-24T12:11:59.952Z,10288
2017-09-24T12:13:01.574Z,17760
2017-09-24T12:14:53.294Z,12208
2017-09-24T12:15:54.917Z,37472
2017-09-24T12:17:46.662Z,16448
2017-09-24T12:18:48.293Z,10012
2017-09-24T12:20:39.995Z,9920
2017-09-24T12:21:41.628Z,10224
2017-09-24T12:23:33.358Z,11200
2017-09-24T12:24:34.985Z,9936
2017-09-24T12:26:26.697Z,13988
2017-09-24T12:27:28.320Z,14412
2017-09-24T12:29:20.050Z,14512
2017-09-24T12:30:21.672Z,14552
2017-09-24T12:32:13.404Z,14448
2017-09-24T12:33:15.030Z,14392
2017-09-24T12:35:06.779Z,13984
2017-09-24T12:36:08.409Z,13812
2017-09-24T12:38:00.977Z,13472
2017-09-24T12:39:02.597Z,13196
2017-09-24T12:40:54.328Z,12976
2017-09-24T12:41:55.956Z,13016
2017-09-24T12:43:47.676Z,13108
2017-09-24T12:44:49.299Z,12992
2017-09-24T12:46:41.036Z,13312
2017-09-24T12:47:42.660Z,13416
2017-09-24T12:49:34.366Z,14140
2017-09-24T12:50:35.989Z,14540
2017-09-24T12:52:27.722Z,14020
2017-09-24T12:53:29.352Z,13264
2017-09-24T12:55:21.058Z,12032
2017-09-24T12:56:22.683Z,11652
2017-09-24T12:58:14.408Z,11328
2017-09-24T12:59:16.033Z,11568
2017-09-24T13:01:07.738Z,11048
2017-09-24T13:02:09.364Z,10500
2017-09-24T13:04:01.091Z,10788
2017-09-24T13:05:02.715Z,11020
2017-09-24T13:06:54.418Z,11352
2017-09-24T13:07:56.043Z,11200
2017-09-24T13:09:47.771Z,11136
2017-09-24T13:10:49.396Z,11012
2017-09-24T13:12:41.122Z,11096
2017-09-24T13:13:42.756Z,11272
2017-09-24T13:15:34.464Z,10956
2017-09-24T13:16:36.091Z,10200
2017-09-24T13:18:27.811Z,9012
2017-09-24T13:19:29.436Z,8068
2017-09-24T13:21:21.142Z,8332
2017-09-24T13:22:22.765Z,8724
2017-09-24T13:24:14.486Z,8920
2017-09-24T13:25:16.109Z,8920
2017-09-24T13:27:07.846Z,9156
2017-09-24T13:28:09.476Z,9108
2017-09-24T13:30:01.173Z,8996
2017-09-24T13:31:02.798Z,8880
2017-09-24T13:32:54.526Z,8352
2017-09-24T13:33:56.151Z,7904
2017-09-24T13:35:47.854Z,7244
2017-09-24T13:36:49.482Z,7044
2017-09-24T13:38:41.210Z,7108
2017-09-24T13:39:42.830Z,7144
2017-09-24T13:41:34.537Z,6884
2017-09-24T13:42:36.166Z,7264
2017-09-24T13:44:27.892Z,8796
2017-09-24T13:45:29.508Z,9668
2017-09-24T13:47:21.210Z,10240
2017-09-24T13:48:22.838Z,10060
2017-09-24T13:50:14.564Z,9232
2017-09-24T13:51:16.185Z,8740
2017-09-24T13:53:07.887Z,7372
2017-09-24T13:54:09.504Z,6772
2017-09-24T13:56:01.234Z,6364
2017-09-24T13:57:02.853Z,6460
2017-09-24T13:58:54.559Z,6648
2017-09-24T13:59:56.177Z,6676
2017-09-24T14:01:47.902Z,6184
2017-09-24T14:02:49.519Z,5920
2017-09-24T14:04:41.241Z,5572
2017-09-24T14:05:42.858Z,5500
2017-09-24T14:07:34.569Z,5408
2017-09-24T14:08:36.186Z,5308
2017-09-24T14:10:27.917Z,5184
2017-09-24T14:11:29.532Z,5172
2017-09-24T14:13:21.240Z,5192
2017-09-24T14:14:22.858Z,5280
2017-09-24T14:16:15.432Z,5480
2017-09-24T14:17:17.055Z,5628
2017-09-24T14:19:08.753Z,5916
2017-09-24T14:20:10.378Z,6004
2017-09-24T14:22:02.092Z,6564
2017-09-24T14:23:03.716Z,6872
2017-09-24T14:24:55.423Z,7588
2017-09-24T14:25:57.042Z,7212
2017-09-24T14:27:48.760Z,7488
2017-09-24T14:28:50.380Z,7668
2017-09-24T14:30:42.087Z,7932
2017-09-24T14:31:43.703Z,7076
2017-09-24T14:33:35.422Z,5388
2017-09-24T14:34:37.043Z,4688
2017-09-24T14:36:28.739Z,3932
2017-09-24T14:37:30.364Z,3760
2017-09-24T14:39:22.084Z,3788
2017-09-24T14:40:23.699Z,3816
2017-09-24T14:42:15.402Z,3888
2017-09-24T14:43:17.025Z,3968
2017-09-24T14:45:08.756Z,4112
2017-09-24T14:46:10.372Z,4084
2017-09-24T14:48:02.074Z,4004
2017-09-24T14:49:03.690Z,3912
2017-09-24T14:50:55.412Z,3960
2017-09-24T14:51:57.027Z,3820
2017-09-24T14:53:48.726Z,3224
2017-09-24T14:54:50.343Z,3144
2017-09-24T14:56:42.064Z,3324
2017-09-24T14:57:43.680Z,3392
2017-09-24T14:59:35.395Z,3384
2017-09-24T15:00:37.017Z,3236
2017-09-24T15:02:28.742Z,3084
2017-09-24T15:03:30.369Z,3100
2017-09-24T15:05:22.056Z,3196
2017-09-24T15:06:23.680Z,3312
2017-09-24T15:08:15.391Z,3520
2017-09-24T15:09:17.009Z,3796
2017-09-24T15:11:08.713Z,3836
2017-09-24T15:12:10.335Z,3768
2017-09-24T15:14:02.052Z,3792
2017-09-24T15:15:03.675Z,3776
2017-09-24T15:16:55.376Z,3376
2017-09-24T15:17:56.993Z,3252
2017-09-24T15:19:48.749Z,3080
2017-09-24T15:20:50.366Z,3084
2017-09-24T15:22:42.083Z,2928
2017-09-24T15:23:43.701Z,2820
2017-09-24T15:25:35.424Z,2628
2017-09-24T15:26:37.040Z,2560
2017-09-24T15:28:29.586Z,2524
2017-09-24T15:29:31.210Z,2504
2017-09-24T15:31:22.931Z,2460
2017-09-24T15:32:24.552Z,2444
2017-09-24T15:34:16.245Z,2460
2017-09-24T15:35:17.862Z,2472
2017-09-24T15:37:09.584Z,2452
2017-09-24T15:38:11.199Z,2432
2017-09-24T15:40:02.899Z,2376
2017-09-24T15:41:04.523Z,2352
2017-09-24T15:42:56.236Z,2300
2017-09-24T15:43:57.858Z,2268
2017-09-24T15:45:49.555Z,2220
2017-09-24T15:46:51.178Z,2228